Time;durP1;ratioP1;P1;durP2;ratioP2;P2;SDS_P1;SDS_P2;PMS_P1;PMS_P2;Temp;Humidity;BMP_temperature;BMP_pressure;BME280_temperature;BME280_humidity;BME280_pressure;Samples;Min_cycle;Max_cycle;Signal;HPM_P1;HPM_P2
2021/04/01 00:00:44;;;;;;;13.48;9.68;;;;;;;7.78;59.80;100611.16;5051262;28;20040;-70
2021/04/01 00:03:10;;;;;;;13.05;8.93;;;;;;;7.70;58.75;100590.13;5051131;28;20040;-69
2021/04/01 00:05:38;;;;;;;13.82;9.40;;;;;;;7.76;58.03;100615.41;5052485;28;20029;-70
2021/04/01 00:08:04;;;;;;;13.43;8.75;;;;;;;7.78;57.08;100604.41;5051750;28;20029;-70
2021/04/01 00:10:37;;;;;;;10.88;8.27;;;;;;;7.89;56.83;100614.47;5052276;28;20059;-70
2021/04/01 00:13:05;;;;;;;12.63;8.27;;;;;;;8.02;56.49;100605.09;5051220;28;20025;-70
2021/04/01 00:15:32;;;;;;;11.57;7.97;;;;;;;8.19;56.17;100614.22;5052166;28;20068;-70
2021/04/01 00:17:59;;;;;;;9.35;7.60;;;;;;;7.88;56.37;100615.31;5051003;28;20021;-70
2021/04/01 00:20:27;;;;;;;13.32;8.45;;;;;;;8.01;57.30;100606.78;5052222;28;20067;-70
2021/04/01 00:22:53;;;;;;;12.35;8.15;;;;;;;8.07;56.76;100600.81;5050675;28;20064;-70
2021/04/01 00:25:19;;;;;;;12.15;8.60;;;;;;;8.16;56.07;100600.75;5051150;28;20064;-69
2021/04/01 00:27:45;;;;;;;14.10;9.00;;;;;;;8.18;55.88;100586.41;5051944;28;20076;-71
2021/04/01 00:30:12;;;;;;;12.90;8.85;;;;;;;8.40;56.11;100590.44;5069452;28;20044;-73
2021/04/01 00:32:39;;;;;;;13.98;9.23;;;;;;;8.24;55.83;100587.16;5092306;28;20509;-70
2021/04/01 00:35:06;;;;;;;15.77;9.98;;;;;;;8.45;55.64;100581.97;5073761;28;20118;-70
2021/04/01 00:37:31;;;;;;;14.07;9.65;;;;;;;8.46;55.81;100592.91;5073857;28;20468;-70
2021/04/01 00:39:58;;;;;;;12.88;9.20;;;;;;;8.40;56.03;100585.34;5092145;28;20119;-70
2021/04/01 00:42:24;;;;;;;13.73;10.00;;;;;;;8.42;56.89;100571.00;5091915;28;20096;-72
2021/04/01 00:44:50;;;;;;;14.90;10.25;;;;;;;8.38;56.92;100585.38;5073488;28;20118;-70
2021/04/01 00:47:17;;;;;;;17.25;10.90;;;;;;;8.42;56.57;100573.53;5073748;28;20111;-70
2021/04/01 00:49:44;;;;;;;16.20;11.90;;;;;;;8.28;56.50;100561.00;5073614;28;20035;-70
2021/04/01 00:52:10;;;;;;;16.90;11.95;;;;;;;8.51;56.76;100561.63;5073811;28;20402;-70
2021/04/01 00:54:36;;;;;;;18.83;12.20;;;;;;;8.66;57.01;100563.13;5073403;28;20024;-70
2021/04/01 00:57:04;;;;;;;18.95;13.63;;;;;;;8.25;57.89;100553.44;5073574;28;20097;-70
2021/04/01 00:59:30;;;;;;;17.30;13.57;;;;;;;8.03;58.93;100534.19;5073465;28;20109;-71
2021/04/01 01:02:04;;;;;;;18.65;13.63;;;;;;;8.26;58.47;100539.91;5091464;28;20059;-70
2021/04/01 01:04:31;;;;;;;18.02;12.73;;;;;;;8.14;58.26;100526.50;5091363;28;20035;-71
2021/04/01 01:06:56;;;;;;;18.10;12.32;;;;;;;8.20;58.69;100521.38;5073559;28;20437;-70
2021/04/01 01:09:29;;;;;;;18.67;13.27;;;;;;;8.27;58.63;100515.41;5091467;28;20024;-71
2021/04/01 01:11:55;;;;;;;15.65;11.73;;;;;;;8.32;57.86;100511.97;5091518;28;20562;-70
2021/04/01 01:14:23;;;;;;;18.08;11.35;;;;;;;8.50;57.73;100511.78;5091295;28;20067;-69
2021/04/01 01:16:49;;;;;;;15.75;11.45;;;;;;;8.71;57.35;100515.78;5091292;28;20031;-70
2021/04/01 01:19:18;;;;;;;18.90;12.02;;;;;;;8.54;58.25;100510.91;5073103;28;20115;-70
2021/04/01 01:21:45;;;;;;;15.50;11.32;;;;;;;8.55;57.26;100509.22;5073122;28;20123;-70
2021/04/01 01:24:13;;;;;;;16.35;11.27;;;;;;;8.63;57.33;100509.97;5091244;28;20040;-70
2021/04/01 01:26:40;;;;;;;16.58;11.65;;;;;;;8.64;58.15;100502.34;5073228;28;20109;-70
2021/04/01 01:29:08;;;;;;;16.40;12.07;;;;;;;8.48;59.20;100492.38;5091092;28;20032;-70
2021/04/01 01:31:46;;;;;;;17.83;12.38;;;;;;;8.62;58.75;100495.59;5072738;28;20420;-70
2021/04/01 01:34:12;;;;;;;18.10;12.95;;;;;;;8.72;58.72;100494.63;5073231;28;20085;-72
2021/04/01 01:36:38;;;;;;;18.75;12.88;;;;;;;8.77;58.10;100482.75;5072737;28;20459;-70
2021/04/01 01:39:04;;;;;;;22.02;12.82;;;;;;;8.82;58.37;100495.34;5091083;28;20442;-70
2021/04/01 01:41:30;;;;;;;19.77;13.13;;;;;;;8.80;57.87;100485.25;5073225;28;20051;-70
2021/04/01 01:43:57;;;;;;;16.52;12.77;;;;;;;8.66;58.63;100462.59;5072759;28;20035;-71
2021/04/01 01:46:25;;;;;;;21.45;13.10;;;;;;;8.67;58.91;100479.50;5090967;28;20020;-71
2021/04/01 01:48:58;;;;;;;20.17;13.15;;;;;;;8.86;58.36;100486.84;5090912;28;20032;-70
2021/04/01 01:51:26;;;;;;;21.05;13.32;;;;;;;8.70;58.64;100464.25;5091042;28;20020;-70
2021/04/01 01:53:54;;;;;;;21.08;13.68;;;;;;;8.80;58.52;100471.72;5091021;28;20028;-70
2021/04/01 01:56:21;;;;;;;20.02;14.10;;;;;;;8.72;59.21;100467.59;5090816;28;20042;-71
2021/04/01 01:58:49;;;;;;;20.98;13.68;;;;;;;8.98;58.27;100474.03;5090828;28;20113;-70
2021/04/01 02:01:17;;;;;;;19.27;13.80;;;;;;;8.86;59.03;100459.81;5072756;28;20035;-70
2021/04/01 02:03:45;;;;;;;18.80;14.38;;;;;;;8.84;59.38;100469.13;5072623;28;20412;-70
2021/04/01 02:06:14;;;;;;;20.38;14.10;;;;;;;8.92;59.02;100458.88;5090787;28;20471;-71
2021/04/01 02:08:40;;;;;;;19.80;14.10;;;;;;;9.09;58.88;100456.97;5090893;28;20039;-70
2021/04/01 02:11:08;;;;;;;23.50;15.60;;;;;;;9.16;58.42;100453.47;5072499;28;20401;-70
2021/04/01 02:13:38;;;;;;;20.67;14.13;;;;;;;9.23;58.75;100450.00;5090733;28;20024;-70
2021/04/01 02:16:04;;;;;;;23.77;15.65;;;;;;;9.29;57.99;100439.78;5072427;28;20036;-70
2021/04/01 02:18:30;;;;;;;23.58;15.23;;;;;;;9.36;58.59;100442.19;5072482;28;20020;-70
2021/04/01 02:20:59;;;;;;;19.75;14.77;;;;;;;9.55;58.15;100447.78;5072631;28;20115;-70
2021/04/01 02:23:32;;;;;;;21.52;15.18;;;;;;;9.55;57.77;100441.00;5072484;28;20035;-71
2021/04/01 02:25:59;;;;;;;21.23;14.77;;;;;;;9.38;57.49;100454.84;5090534;28;20039;-70
2021/04/01 02:28:29;;;;;;;20.15;13.85;;;;;;;9.39;57.95;100464.09;5090681;28;20028;-71
2021/04/01 02:30:57;;;;;;;20.50;13.88;;;;;;;9.18;57.90;100466.97;5075208;28;20040;-69
2021/04/01 02:33:26;;;;;;;19.10;13.60;;;;;;;8.82;59.62;100463.25;5094494;28;20020;-70
2021/04/01 02:35:57;;;;;;;20.42;14.30;;;;;;;8.56;61.09;100470.34;5076443;28;20020;-70
2021/04/01 02:38:24;;;;;;;19.50;13.98;;;;;;;8.34;61.63;100476.53;5094584;28;20024;-70
2021/04/01 02:40:51;;;;;;;19.38;13.95;;;;;;;8.37;61.58;100476.47;5094341;28;20229;-70
2021/04/01 02:43:37;;;;;;;18.17;12.95;;;;;;;8.05;61.67;100476.78;5076242;28;20028;-70
2021/04/01 02:46:05;;;;;;;19.50;12.55;;;;;;;7.83;61.94;100473.63;5076038;28;20165;-70
2021/04/01 02:48:31;;;;;;;18.23;12.80;;;;;;;7.83;62.38;100476.16;5094153;28;20063;-70
2021/04/01 02:51:03;;;;;;;15.73;11.30;;;;;;;7.81;61.64;100475.31;5094376;28;20457;-69
2021/04/01 02:53:28;;;;;;;17.33;12.40;;;;;;;7.92;61.85;100475.22;5094215;28;20047;-71
2021/04/01 02:55:55;;;;;;;18.25;12.30;;;;;;;7.83;61.81;100472.78;5075853;28;20090;-70
2021/04/01 02:58:21;;;;;;;18.00;11.88;;;;;;;7.58;62.03;100464.56;5094077;28;20077;-69
2021/04/01 03:00:49;;;;;;;17.67;12.10;;;;;;;7.62;62.38;100478.88;5093758;28;20405;-69
2021/04/01 03:03:22;;;;;;;16.65;11.80;;;;;;;7.53;61.78;100478.91;5075628;28;20020;-70
2021/04/01 03:05:49;;;;;;;18.20;12.40;;;;;;;7.55;63.09;100489.88;5094039;28;20020;-70
2021/04/01 03:08:20;;;;;;;16.30;11.10;;;;;;;7.45;62.39;100495.84;5093677;28;20024;-70
2021/04/01 03:10:46;;;;;;;16.83;11.50;;;;;;;7.48;62.11;100497.53;5093858;28;20028;-70
2021/04/01 03:13:13;;;;;;;18.02;12.05;;;;;;;7.31;62.72;100500.16;5093771;28;20485;-70
2021/04/01 03:15:39;;;;;;;16.52;11.55;;;;;;;7.33;63.76;100493.41;5093468;28;20028;-70
2021/04/01 03:18:05;;;;;;;15.65;11.88;;;;;;;7.28;63.75;100506.91;5075452;28;20425;-71
2021/04/01 03:20:32;;;;;;;17.70;12.25;;;;;;;6.97;65.48;100511.31;5075637;28;20505;-70
2021/04/01 03:22:58;;;;;;;23.38;13.77;;;;;;;7.32;64.65;100511.13;5093471;28;20035;-71
2021/04/01 03:25:23;;;;;;;18.42;12.25;;;;;;;7.18;64.77;100517.94;5075562;28;20038;-69
2021/04/01 03:27:49;;;;;;;17.65;12.52;;;;;;;7.00;66.08;100522.25;5075124;28;20110;-71
2021/04/01 03:30:15;;;;;;;21.10;14.30;;;;;;;6.93;65.79;100507.94;5074782;28;20052;-71
2021/04/01 03:32:48;;;;;;;18.48;12.65;;;;;;;6.59;67.71;100518.22;5075220;28;20519;-70
2021/04/01 03:35:17;;;;;;;17.10;12.30;;;;;;;6.48;69.09;100537.59;5074970;28;20416;-70
2021/04/01 03:37:47;;;;;;;24.05;13.35;;;;;;;6.31;68.79;100540.16;5075261;28;20028;-70
2021/04/01 03:40:13;;;;;;;18.13;12.68;;;;;;;6.29;69.40;100541.84;5075173;28;20032;-70
2021/04/01 03:42:41;;;;;;;18.23;12.52;;;;;;;6.31;68.54;100550.25;5073700;28;20373;-71
2021/04/01 03:45:10;;;;;;;17.30;13.00;;;;;;;6.05;68.81;100532.63;5093015;28;20077;-70
2021/04/01 03:47:38;;;;;;;22.20;13.43;;;;;;;6.22;69.14;100555.31;5075018;28;20024;-71
2021/04/01 03:50:08;;;;;;;21.73;14.13;;;;;;;6.12;69.03;100559.53;5092994;28;20051;-71
2021/04/01 03:52:34;;;;;;;21.67;15.00;;;;;;;6.28;69.18;100557.81;5092919;28;20024;-69
2021/04/01 03:55:06;;;;;;;23.02;14.05;;;;;;;6.22;69.16;100565.41;5074941;28;20504;-71
2021/04/01 03:57:40;;;;;;;25.35;14.15;;;;;;;6.69;70.39;100568.72;5092767;28;20032;-71
2021/04/01 04:05:22;;;;;;;20.90;14.70;;;;;;;5.81;69.59;100577.16;5092667;28;20049;-74
2021/04/01 04:11:17;;;;;;;20.90;15.43;;;;;;;5.94;68.41;100591.50;5072620;28;20394;-72
2021/04/01 04:16:00;;;;;;;23.10;15.05;;;;;;;5.68;69.47;100588.09;5030626;28;20063;-72
2021/04/01 04:18:34;;;;;;;24.27;16.60;;;;;;;5.88;69.06;100594.03;5072076;28;20025;-73
2021/04/01 04:21:25;;;;;;;29.77;18.23;;;;;;;5.89;70.27;100616.72;5070917;28;20020;-72
2021/04/01 04:23:52;;;;;;;27.88;17.60;;;;;;;5.63;70.30;100615.81;5082259;28;20123;-73
2021/04/01 04:26:18;;;;;;;24.38;16.45;;;;;;;5.31;72.01;100624.13;5074520;28;20028;-73
2021/04/01 04:28:59;;;;;;;27.40;18.08;;;;;;;5.80;71.28;100614.16;5091927;28;20066;-72
2021/04/01 04:31:27;;;;;;;29.75;18.40;;;;;;;5.34;72.09;100599.78;5090957;28;20109;-74
2021/04/01 04:33:55;;;;;;;27.00;18.08;;;;;;;5.67;70.89;100609.94;5092659;28;20059;-73
2021/04/01 04:36:26;;;;;;;23.75;16.20;;;;;;;5.43;71.50;100616.63;5091848;28;20172;-73
2021/04/01 04:38:51;;;;;;;19.58;13.38;;;;;;;5.09;73.14;100613.94;5092077;28;20028;-73
2021/04/01 04:41:23;;;;;;;26.35;17.00;;;;;;;5.07;74.73;100629.91;5092334;28;20489;-73
2021/04/01 04:43:52;;;;;;;30.80;19.35;;;;;;;5.52;72.09;100634.28;5073335;28;20058;-72
2021/04/01 04:46:17;;;;;;;27.73;17.33;;;;;;;5.10;73.96;100624.88;5073862;28;20054;-74
2021/04/01 04:48:42;;;;;;;28.83;19.23;;;;;;;5.43;72.85;100635.06;5074082;28;20414;-72
2021/04/01 04:51:11;;;;;;;29.25;18.95;;;;;;;5.33;74.89;100640.09;5074301;28;20405;-75
2021/04/01 04:53:43;;;;;;;28.55;18.60;;;;;;;5.58;73.18;100629.25;5092222;28;20032;-74
2021/04/01 04:56:22;;;;;;;29.65;19.23;;;;;;;5.99;73.05;100637.75;5074488;28;20032;-74
2021/04/01 04:59:06;;;;;;;28.70;19.90;;;;;;;5.67;73.45;100640.19;5092301;28;20039;-74
2021/04/01 05:04:40;;;;;;;;;;;;;;;5.60;71.77;100641.03;5092512;28;20597;-73
2021/04/01 05:07:15;;;;;;;24.40;16.08;;;;;;;5.45;72.54;100620.81;5092353;28;19912;-74
2021/04/01 05:09:47;;;;;;;29.10;17.65;;;;;;;5.61;71.65;100639.34;5090793;28;20035;-74
2021/04/01 05:12:28;;;;;;;34.60;23.60;;;;;;;5.98;69.65;100620.97;5091906;28;20034;-74
2021/04/01 05:15:05;;;;;;;30.02;21.13;;;;;;;6.01;68.09;100629.38;5073959;28;20024;-74
2021/04/01 05:17:30;;;;;;;22.80;15.85;;;;;;;5.91;68.32;100639.44;5092316;28;20028;-74
2021/04/01 05:20:03;;;;;;;21.75;14.00;;;;;;;5.89;68.24;100651.19;5092026;28;20086;-74
2021/04/01 05:22:46;;;;;;;20.00;14.02;;;;;;;6.07;67.10;100628.53;5092065;28;20028;-76
2021/04/01 05:25:37;;;;;;;22.30;15.52;;;;;;;6.55;66.20;100642.81;5074084;28;20419;-74
2021/04/01 05:28:31;;;;;;;26.00;16.70;;;;;;;6.61;66.87;100645.34;5092025;28;20047;-74
2021/04/01 05:31:23;;;;;;;25.40;16.35;;;;;;;6.54;65.73;100633.53;5073645;28;20058;-73
2021/04/01 05:34:15;;;;;;;21.40;13.77;;;;;;;6.62;66.49;100641.97;5091650;28;20389;-74
2021/04/01 05:37:02;;;;;;;23.08;14.02;;;;;;;6.54;65.75;100633.53;5091771;28;20047;-74
2021/04/01 05:39:35;;;;;;;22.42;13.43;;;;;;;6.59;65.29;100634.41;5073707;28;20028;-74
2021/04/01 05:42:21;;;;;;;18.90;12.77;;;;;;;6.89;64.95;100614.13;5073599;28;20582;-73
2021/04/01 05:45:09;;;;;;;21.65;14.98;;;;;;;7.22;63.30;100636.75;5073767;28;20455;-73
2021/04/01 05:47:59;;;;;;;22.45;13.18;;;;;;;7.06;64.01;100632.59;5073803;28;20478;-73
2021/04/01 05:50:51;;;;;;;20.08;13.48;;;;;;;7.10;63.58;100638.47;5091632;28;20027;-73
2021/04/01 06:04:40;;;;;;;21.02;14.48;;;;;;;8.21;58.31;100663.19;5092415;28;20469;-75
2021/04/01 06:07:30;;;;;;;19.67;14.77;;;;;;;8.24;58.75;100665.69;5077689;28;20028;-74
2021/04/01 06:10:03;;;;;;;21.88;14.82;;;;;;;8.52;57.75;100662.09;5077511;28;20489;-74
2021/04/01 06:12:47;;;;;;;20.17;14.80;;;;;;;8.95;56.71;100665.09;5077400;28;20024;-74
2021/04/01 06:15:19;;;;;;;20.35;14.95;;;;;;;8.64;56.97;100662.00;5077114;28;20118;-75
2021/04/01 06:18:08;;;;;;;20.35;14.48;;;;;;;9.52;55.15;100661.03;5077544;28;20039;-74
2021/04/01 06:20:51;;;;;;;23.05;15.10;;;;;;;9.50;54.31;100665.28;5077372;28;20432;-75
2021/04/01 06:23:28;;;;;;;21.48;15.20;;;;;;;9.40;54.83;100664.56;5095011;28;20028;-74
2021/04/01 06:26:16;;;;;;;21.77;14.73;;;;;;;9.33;54.55;100662.13;5077095;28;20436;-73
2021/04/01 06:28:58;;;;;;;19.27;14.98;;;;;;;9.20;54.17;100656.34;5095439;28;20505;-74
2021/04/01 06:31:41;;;;;;;21.65;15.60;;;;;;;9.93;53.61;100650.31;5095142;28;20044;-73
2021/04/01 06:34:50;;;;;;;25.10;16.17;;;;;;;9.93;52.34;100663.84;5077261;28;20070;-74
2021/04/01 06:37:49;;;;;;;23.27;17.27;;;;;;;9.61;55.41;100659.22;5095121;28;20032;-73
2021/04/01 06:40:13;;;;;;;22.27;16.55;;;;;;;9.78;53.40;100661.53;5094942;28;20028;-74
2021/04/01 06:42:51;;;;;;;20.90;16.00;;;;;;;10.30;52.21;100667.53;5094731;28;20051;-74
2021/04/01 06:45:29;;;;;;;32.08;18.85;;;;;;;10.65;50.19;100666.13;5094806;28;20034;-73
2021/04/01 06:51:19;;;;;;;20.63;15.38;;;;;;;11.41;48.49;100658.72;5095061;28;20551;-74
2021/04/01 06:54:42;;;;;;;21.35;15.18;;;;;;;11.96;47.58;100671.97;5094774;28;20020;-74
2021/04/01 06:57:38;;;;;;;22.75;15.30;;;;;;;10.66;50.49;100670.34;5076501;28;20039;-74
2021/04/01 07:03:31;;;;;;;20.65;15.95;;;;;;;11.78;46.93;100671.56;5094441;28;20070;-74
2021/04/01 07:06:10;;;;;;;20.10;14.38;;;;;;;11.27;48.84;100673.44;5076531;28;20031;-74
2021/04/01 07:09:12;;;;;;;17.73;13.23;;;;;;;11.12;49.01;100673.72;5094640;28;20020;-74
2021/04/01 07:11:41;;;;;;;16.50;11.82;;;;;;;10.29;49.15;100663.34;5094580;28;20030;-74
2021/04/01 07:14:25;;;;;;;15.55;11.40;;;;;;;11.22;47.88;100659.97;5076297;28;20046;-75
2021/04/01 07:17:37;;;;;;;17.55;12.13;;;;;;;11.61;47.08;100665.94;5076032;28;20518;-74
2021/04/01 07:49:04;;;;;;;9.90;7.13;;;;;;;13.71;39.27;100677.63;5093812;28;20038;-75
2021/04/01 08:07:03;;;;;;;8.52;5.85;;;;;;;13.08;37.51;100671.78;5093629;28;20027;-75
2021/04/01 08:09:35;;;;;;;9.23;6.13;;;;;;;13.54;38.38;100656.00;5075371;28;20059;-74
2021/04/01 08:15:09;;;;;;;9.80;6.00;;;;;;;13.64;37.06;100655.69;5093069;28;19919;-74
2021/04/01 08:17:54;;;;;;;8.77;5.60;;;;;;;14.62;34.98;100652.56;5092988;28;20020;-75
2021/04/01 08:20:58;;;;;;;8.57;5.20;;;;;;;13.82;36.47;100647.50;5075026;28;20089;-74
2021/04/01 08:23:50;;;;;;;7.15;5.40;;;;;;;13.73;35.82;100650.31;5093109;28;20024;-74
2021/04/01 08:31:59;;;;;;;7.25;5.53;;;;;;;15.17;33.08;100642.97;5092634;28;20044;-74
2021/04/01 08:34:39;;;;;;;6.95;4.60;;;;;;;13.92;35.41;100645.47;5074708;28;20089;-74
2021/04/01 08:37:33;;;;;;;6.88;4.60;;;;;;;13.70;35.50;100642.75;5074681;28;20074;-74
2021/04/01 08:40:16;;;;;;;5.13;4.63;;;;;;;14.66;33.51;100631.09;5092648;28;20024;-75
2021/04/01 08:43:14;;;;;;;7.03;5.20;;;;;;;14.14;33.60;100643.94;5074598;28;20038;-75
2021/04/01 08:46:12;;;;;;;7.65;4.78;;;;;;;13.79;34.35;100639.91;5074205;28;20143;-74
2021/04/01 08:49:26;;;;;;;7.80;4.72;;;;;;;14.19;34.95;100623.28;5074323;28;20040;-75
2021/04/01 08:55:19;;;;;;;7.60;5.88;;;;;;;14.95;32.74;100627.53;5092804;28;20046;-74
2021/04/01 08:58:23;;;;;;;7.63;5.63;;;;;;;15.23;33.54;100635.88;5074208;28;20032;-74
2021/04/01 09:01:08;;;;;;;6.55;5.20;;;;;;;14.36;33.18;100609.09;5073976;28;20067;-74
2021/04/01 09:03:37;;;;;;;7.72;4.70;;;;;;;14.58;33.75;100616.88;5073845;28;20028;-74
2021/04/01 09:06:12;;;;;;;8.88;4.78;;;;;;;14.31;33.79;100634.00;5073930;28;20032;-75
2021/04/01 09:08:47;;;;;;;7.03;4.50;;;;;;;14.80;33.79;100625.50;5074315;28;20034;-74
2021/04/01 09:14:35;;;;;;;7.00;4.25;;;;;;;14.99;33.49;100618.03;5092270;28;20038;-74
2021/04/01 09:17:16;;;;;;;6.00;4.45;;;;;;;15.04;32.66;100600.75;5073638;28;20035;-75
2021/04/01 09:20:10;;;;;;;6.22;4.90;;;;;;;16.37;32.00;100606.66;5073757;28;20024;-75
2021/04/01 09:22:59;;;;;;;6.47;4.82;;;;;;;15.02;33.99;100603.38;5073860;28;20084;-74
2021/04/01 09:25:46;;;;;;;6.07;4.82;;;;;;;15.66;33.10;100603.56;5092272;28;20115;-75
2021/04/01 09:28:29;;;;;;;6.88;5.05;;;;;;;17.09;30.47;100593.22;5090925;28;20051;-74
2021/04/01 09:31:06;;;;;;;6.10;4.50;;;;;;;16.61;31.15;100592.81;5091549;28;20040;-74
2021/04/01 09:33:41;;;;;;;9.02;5.80;;;;;;;15.68;32.44;100599.22;5091692;28;20032;-75
2021/04/01 09:39:35;;;;;;;5.57;4.70;;;;;;;15.37;32.91;100573.91;5091734;28;20047;-75
2021/04/01 09:42:22;;;;;;;6.85;4.88;;;;;;;15.36;33.15;100598.69;5091406;28;20024;-75
2021/04/01 09:44:57;;;;;;;7.65;4.22;;;;;;;16.69;31.88;100590.75;5072380;28;20032;-75
2021/04/01 09:47:44;;;;;;;5.60;4.07;;;;;;;15.15;33.93;100583.28;5073502;28;20032;-74
2021/04/01 09:50:55;;;;;;;7.45;4.90;;;;;;;16.74;33.56;100581.09;5091561;28;20021;-75
2021/04/01 09:53:30;;;;;;;6.68;4.30;;;;;;;15.83;32.44;100566.13;5091422;28;20028;-74
2021/04/01 09:55:58;;;;;;;8.15;5.10;;;;;;;15.21;35.26;100577.94;5073263;28;20036;-74
2021/04/01 09:58:40;;;;;;;5.70;4.38;;;;;;;15.09;33.85;100579.22;5091188;28;20032;-74
2021/04/01 10:01:38;;;;;;;4.93;4.22;;;;;;;16.03;33.35;100576.41;5073172;28;20024;-74
2021/04/01 10:04:14;;;;;;;8.27;4.72;;;;;;;16.19;32.53;100566.34;5090150;28;20036;-74
2021/04/01 10:07:14;;;;;;;5.93;4.78;;;;;;;15.72;32.96;100565.72;5073475;28;20101;-74
2021/04/01 10:13:02;;;;;;;8.88;4.80;;;;;;;15.96;32.69;100554.47;5091677;28;20118;-74
2021/04/01 10:15:58;;;;;;;6.72;4.43;;;;;;;17.03;31.90;100551.56;5073095;28;20057;-75
2021/04/01 10:18:46;;;;;;;5.65;4.93;;;;;;;16.43;32.27;100552.50;5073205;28;20028;-73
2021/04/01 10:21:15;;;;;;;7.53;4.55;;;;;;;15.81;32.46;100549.94;5073030;28;20036;-74
2021/04/01 10:23:49;;;;;;;8.05;5.07;;;;;;;16.24;32.21;100521.63;5091211;28;20031;-75
2021/04/01 10:27:39;;;;;;;9.32;5.30;;;;;;;16.69;31.43;100541.97;5072854;28;20043;-75
2021/04/01 10:32:41;;;;;;;7.10;5.13;;;;;;;15.80;33.40;100538.03;5091302;28;20032;-74
2021/04/01 10:35:41;;;;;;;6.80;4.70;;;;;;;16.26;33.42;100534.41;5090950;28;20036;-74
2021/04/01 10:38:30;;;;;;;8.00;4.80;;;;;;;15.65;34.40;100525.81;5073072;28;20119;-74
2021/04/01 10:44:21;;;;;;;5.90;4.67;;;;;;;18.46;30.76;100520.63;5090957;28;20089;-74
2021/04/01 10:47:19;;;;;;;7.90;4.60;;;;;;;18.38;30.79;100522.72;5072750;28;20286;-74
2021/04/01 10:49:46;;;;;;;7.78;4.90;;;;;;;17.25;30.66;100519.66;5089597;28;20059;-74
2021/04/01 10:52:46;;;;;;;7.13;4.60;;;;;;;17.25;30.51;100511.97;5076262;28;20020;-72
2021/04/01 10:55:31;;;;;;;5.85;4.30;;;;;;;18.11;30.30;100497.47;5095178;28;20512;-72
2021/04/01 10:58:10;;;;;;;6.05;4.38;;;;;;;18.87;29.71;100501.25;5093349;28;20100;-76
2021/04/01 11:00:40;;;;;;;9.32;4.60;;;;;;;18.34;30.08;100503.19;5076226;28;20447;-72
2021/04/01 11:03:14;;;;;;;5.50;4.18;;;;;;;17.77;30.10;100501.78;5093137;28;20032;-72
2021/04/01 11:06:04;;;;;;;5.05;4.18;;;;;;;17.78;30.66;100500.88;5094511;28;20035;-73
2021/04/01 11:08:49;;;;;;;5.55;4.35;;;;;;;17.48;30.43;100487.75;5076562;28;20028;-74
2021/04/01 11:14:25;;;;;;;4.70;4.00;;;;;;;18.63;28.95;100497.38;5094563;28;21112;-72
2021/04/01 11:17:08;;;;;;;7.05;4.70;;;;;;;18.23;29.40;100487.44;5094079;28;20052;-72
2021/04/01 11:19:44;;;;;;;5.15;4.25;;;;;;;18.73;28.94;100472.81;5076007;28;20032;-72
2021/04/01 11:22:20;;;;;;;6.85;4.45;;;;;;;18.46;29.66;100480.22;5076200;28;20031;-72
2021/04/01 11:24:47;;;;;;;4.95;4.05;;;;;;;18.73;28.94;100465.91;5075996;28;20124;-74
2021/04/01 11:27:19;;;;;;;6.05;4.03;;;;;;;19.18;28.85;100459.16;5094022;28;20106;-72
2021/04/01 11:29:51;;;;;;;8.00;4.43;;;;;;;19.41;28.78;100461.31;5087707;28;20048;-74
2021/04/01 11:32:57;;;;;;;5.13;4.07;;;;;;;18.81;29.08;100456.03;5053803;28;20032;-72
2021/04/01 11:35:24;;;;;;;5.95;4.53;;;;;;;17.22;31.31;100453.00;5052334;28;20071;-74
2021/04/01 11:38:03;;;;;;;6.35;4.00;;;;;;;18.82;30.28;100449.94;5053716;28;20037;-75
2021/04/01 11:43:57;;;;;;;5.45;4.15;;;;;;;19.78;28.58;100432.50;5053454;28;20044;-74
2021/04/01 11:46:45;;;;;;;8.23;4.28;;;;;;;19.11;29.10;100442.38;5052270;28;20477;-74
2021/04/01 11:49:31;;;;;;;5.38;4.50;;;;;;;17.82;30.89;100446.66;5052478;28;20509;-74
2021/04/01 11:51:56;;;;;;;4.95;4.30;;;;;;;18.71;30.11;100425.69;5053392;28;20079;-73
2021/04/01 11:54:23;;;;;;;6.35;4.20;;;;;;;17.92;30.46;100440.13;5053555;28;20486;-74
2021/04/01 11:57:00;;;;;;;6.70;4.20;;;;;;;18.84;28.97;100424.94;5052427;28;20036;-74
2021/04/01 11:59:34;;;;;;;5.80;4.30;;;;;;;17.08;31.17;100422.00;5053207;28;20108;-76
2021/04/01 12:02:22;;;;;;;4.63;3.80;;;;;;;19.69;28.99;100420.09;5051436;28;20037;-74
2021/04/01 12:04:55;;;;;;;6.97;4.30;;;;;;;18.45;30.07;100427.09;5051692;28;20127;-75
2021/04/01 12:07:43;;;;;;;7.03;4.50;;;;;;;18.31;29.93;100423.53;5051869;28;20586;-74
2021/04/01 12:10:37;;;;;;;4.55;3.63;;;;;;;18.68;29.62;100418.09;5051876;28;20040;-74
2021/04/01 12:13:19;;;;;;;7.25;4.57;;;;;;;18.37;29.29;100413.75;5051899;28;20029;-74
2021/04/01 12:16:24;;;;;;;6.30;4.22;;;;;;;18.46;29.44;100413.28;5052939;28;20053;-74
2021/04/01 12:18:50;;;;;;;5.28;4.07;;;;;;;19.34;28.37;100380.88;5051478;28;20033;-75
2021/04/01 12:21:18;;;;;;;8.32;4.47;;;;;;;19.97;27.05;100389.16;5051316;28;20074;-74
2021/04/01 12:23:47;;;;;;;5.13;4.63;;;;;;;20.06;27.38;100392.97;5051385;28;20031;-74
2021/04/01 12:26:13;;;;;;;7.15;4.40;;;;;;;19.86;28.86;100386.41;5051237;28;20045;-73
2021/04/01 12:28:39;;;;;;;8.02;4.20;;;;;;;17.07;31.77;100386.91;5052463;28;20025;-74
2021/04/01 12:31:10;;;;;;;4.65;3.90;;;;;;;19.25;28.81;100378.81;5078710;28;20050;-74
2021/04/01 12:33:47;;;;;;;6.03;4.50;;;;;;;18.96;29.73;100359.81;5071237;28;20028;-74
2021/04/01 12:38:38;;;;;;;4.70;3.97;;;;;;;19.27;29.38;100379.56;4106138;34;20389;31
2021/04/01 13:16:13;;;;;;;6.97;3.97;;;;;;;18.00;31.10;100311.09;4044877;34;20225;31
2021/04/01 13:19:06;;;;;;;5.55;4.03;;;;;;;18.04;30.69;100331.41;4087497;34;20957;31
2021/04/01 13:26:56;;;;;;;5.32;4.10;;;;;;;19.15;29.42;100315.81;3997796;34;20803;31
2021/04/01 13:39:52;;;;;;;8.45;4.70;;;;;;;18.00;32.47;100311.91;4084159;34;20471;31
2021/04/01 14:14:04;;;;;;;6.78;4.30;;;;;;;17.33;32.88;100255.41;4083737;34;20052;31
2021/04/01 14:16:35;;;;;;;16.17;5.63;;;;;;;18.48;32.51;100272.38;4066490;34;21376;31
2021/04/01 14:26:46;;;;;;;6.50;4.80;;;;;;;17.94;32.57;100294.22;4080830;34;20545;31
2021/04/01 14:29:38;;;;;;;6.20;4.65;;;;;;;17.22;32.74;100295.41;4080052;34;20146;31
2021/04/01 14:48:18;;;;;;;6.20;4.00;;;;;;;17.59;32.66;100291.84;4083846;34;20053;31
2021/04/01 14:58:38;;;;;;;5.10;4.25;;;;;;;17.63;33.49;100283.06;4084371;34;20036;31
2021/04/01 15:18:31;;;;;;;6.22;4.57;;;;;;;16.43;34.47;100252.19;4016359;34;20118;31
2021/04/01 15:21:21;;;;;;;7.82;4.60;;;;;;;17.06;33.59;100287.63;4058898;34;20162;31
2021/04/01 15:46:55;;;;;;;5.10;3.70;;;;;;;16.13;35.55;100287.81;4078672;34;20525;31
2021/04/01 15:54:23;;;;;;;6.00;4.20;;;;;;;15.83;35.92;100260.16;4080924;34;20884;31
2021/04/01 15:57:13;;;;;;;6.37;4.57;;;;;;;15.84;35.83;100292.59;4071844;34;20070;31
2021/04/01 16:12:07;;;;;;;7.88;4.43;;;;;;;15.22;36.90;100275.59;3595269;39;20071;-72
2021/04/01 16:19:31;;;;;;;6.18;4.40;;;;;;;15.13;37.77;100286.22;3605996;39;20117;-70
2021/04/01 16:21:56;;;;;;;6.80;4.57;;;;;;;14.86;38.47;100281.41;3607134;39;20036;-72
2021/04/01 16:24:23;;;;;;;7.05;4.30;;;;;;;14.75;39.20;100271.63;3608439;39;20044;-69
2021/04/01 16:29:17;;;;;;;8.10;5.38;;;;;;;14.49;39.49;100270.09;3583197;40;20065;-72
2021/04/01 16:31:47;;;;;;;17.20;9.95;;;;;;;14.89;40.06;100281.28;3581042;40;20076;-71
2021/04/01 16:34:16;;;;;;;8.55;6.90;;;;;;;14.44;41.66;100292.44;3581624;40;20045;-71
2021/04/01 16:36:42;;;;;;;12.70;8.93;;;;;;;14.29;42.43;100285.38;3573918;40;20053;-72
2021/04/01 16:41:39;;;;;;;15.90;10.48;;;;;;;14.55;42.21;100284.34;3591500;40;20488;-70
2021/04/01 16:44:04;;;;;;;10.30;6.72;;;;;;;14.29;42.54;100297.31;3590497;40;20091;-71
2021/04/01 16:46:30;;;;;;;10.75;7.47;;;;;;;14.14;43.11;100269.75;3579952;40;20537;-69
2021/04/01 16:48:56;;;;;;;11.23;9.02;;;;;;;13.97;44.12;100289.97;3589040;40;20336;-71
2021/04/01 16:51:26;;;;;;;24.00;20.23;;;;;;;14.12;43.80;100297.09;3593088;39;20072;-71
2021/04/01 16:54:02;;;;;;;35.58;27.20;;;;;;;14.00;44.35;100292.44;3591641;40;20068;-69